sensor_id;sensor_type;location;lat;lon;timestamp;P1;durP1;ratioP1;P2;durP2;ratioP2
35632;SDS011;21754;48.216;-1.628;2022-08-18T10:12:37;15.43;;;8.73;;
35632;SDS011;21754;48.216;-1.628;2022-08-18T10:23:10;11.65;;;6.93;;
35632;SDS011;21754;48.216;-1.628;2022-08-18T10:25:38;9.25;;;6.55;;
35632;SDS011;21754;48.216;-1.628;2022-08-18T10:28:09;6.90;;;6.13;;
35632;SDS011;21754;48.216;-1.628;2022-08-18T10:33:04;5.68;;;4.07;;
35632;SDS011;21754;48.216;-1.628;2022-08-18T10:38:20;6.68;;;4.93;;
35632;SDS011;21754;48.216;-1.628;2022-08-18T10:41:01;6.82;;;4.55;;
35632;SDS011;21754;48.216;-1.628;2022-08-18T10:43:31;6.45;;;5.50;;
35632;SDS011;21754;48.216;-1.628;2022-08-18T10:45:59;12.32;;;6.35;;
35632;SDS011;21754;48.216;-1.628;2022-08-18T10:48:27;7.25;;;5.05;;
35632;SDS011;21754;48.216;-1.628;2022-08-18T10:59:00;6.40;;;5.85;;
35632;SDS011;21754;48.216;-1.628;2022-08-18T11:03:59;21.02;;;6.07;;
35632;SDS011;21754;48.216;-1.628;2022-08-18T11:06:26;7.93;;;4.90;;
35632;SDS011;21754;48.216;-1.628;2022-08-18T11:08:57;5.60;;;4.13;;
35632;SDS011;21754;48.216;-1.628;2022-08-18T11:11:34;8.70;;;5.40;;
35632;SDS011;21754;48.216;-1.628;2022-08-18T11:17:02;7.65;;;5.47;;
35632;SDS011;21754;48.216;-1.628;2022-08-18T11:19:38;8.27;;;4.90;;
35632;SDS011;21754;48.216;-1.628;2022-08-18T11:22:05;7.55;;;4.38;;
35632;SDS011;21754;48.216;-1.628;2022-08-18T11:24:31;13.85;;;4.47;;
35632;SDS011;21754;48.216;-1.628;2022-08-18T11:27:03;5.03;;;4.25;;
35632;SDS011;21754;48.216;-1.628;2022-08-18T11:29:39;5.30;;;4.82;;
35632;SDS011;21754;48.216;-1.628;2022-08-18T11:37:08;8.05;;;4.80;;
35632;SDS011;21754;48.216;-1.628;2022-08-18T11:39:41;5.55;;;3.90;;
35632;SDS011;21754;48.216;-1.628;2022-08-18T11:42:07;4.07;;;3.67;;
35632;SDS011;21754;48.216;-1.628;2022-08-18T11:44:34;5.07;;;4.57;;
35632;SDS011;21754;48.216;-1.628;2022-08-18T11:47:35;12.32;;;5.50;;
35632;SDS011;21754;48.216;-1.628;2022-08-18T11:50:04;5.18;;;4.18;;
35632;SDS011;21754;48.216;-1.628;2022-08-18T11:52:32;7.05;;;4.53;;
35632;SDS011;21754;48.216;-1.628;2022-08-18T11:55:16;10.65;;;4.90;;
35632;SDS011;21754;48.216;-1.628;2022-08-18T12:03:03;5.95;;;3.22;;
35632;SDS011;21754;48.216;-1.628;2022-08-18T12:05:40;3.95;;;2.75;;
35632;SDS011;21754;48.216;-1.628;2022-08-18T12:08:15;3.97;;;2.97;;
35632;SDS011;21754;48.216;-1.628;2022-08-18T12:10:41;7.72;;;3.83;;
35632;SDS011;21754;48.216;-1.628;2022-08-18T12:13:07;10.43;;;4.20;;
35632;SDS011;21754;48.216;-1.628;2022-08-18T12:15:33;4.90;;;4.18;;
35632;SDS011;21754;48.216;-1.628;2022-08-18T12:17:59;10.30;;;3.85;;
35632;SDS011;21754;48.216;-1.628;2022-08-18T12:20:27;5.13;;;3.97;;
35632;SDS011;21754;48.216;-1.628;2022-08-18T12:22:54;5.70;;;4.35;;
35632;SDS011;21754;48.216;-1.628;2022-08-18T12:25:21;4.22;;;3.90;;
35632;SDS011;21754;48.216;-1.628;2022-08-18T12:27:46;3.83;;;3.08;;
35632;SDS011;21754;48.216;-1.628;2022-08-18T12:30:12;4.55;;;3.00;;
35632;SDS011;21754;48.216;-1.628;2022-08-18T12:32:38;5.40;;;4.05;;
35632;SDS011;21754;48.216;-1.628;2022-08-18T12:35:04;5.30;;;4.07;;
35632;SDS011;21754;48.216;-1.628;2022-08-18T12:37:32;10.13;;;4.05;;
35632;SDS011;21754;48.216;-1.628;2022-08-18T12:39:58;13.13;;;3.17;;
35632;SDS011;21754;48.216;-1.628;2022-08-18T12:42:24;13.02;;;2.65;;
35632;SDS011;21754;48.216;-1.628;2022-08-18T12:44:50;2.83;;;2.50;;
35632;SDS011;21754;48.216;-1.628;2022-08-18T12:47:23;3.17;;;2.45;;
35632;SDS011;21754;48.216;-1.628;2022-08-18T12:49:50;6.95;;;2.10;;
35632;SDS011;21754;48.216;-1.628;2022-08-18T12:52:17;3.65;;;2.63;;
35632;SDS011;21754;48.216;-1.628;2022-08-18T12:54:43;4.07;;;2.67;;
35632;SDS011;21754;48.216;-1.628;2022-08-18T12:57:12;9.57;;;3.35;;
35632;SDS011;21754;48.216;-1.628;2022-08-18T12:59:40;4.78;;;3.17;;
35632;SDS011;21754;48.216;-1.628;2022-08-18T13:02:06;7.47;;;3.78;;
35632;SDS011;21754;48.216;-1.628;2022-08-18T13:07:00;3.35;;;2.20;;
35632;SDS011;21754;48.216;-1.628;2022-08-18T13:09:28;7.93;;;2.30;;
35632;SDS011;21754;48.216;-1.628;2022-08-18T13:14:20;7.78;;;3.20;;
35632;SDS011;21754;48.216;-1.628;2022-08-18T13:16:46;9.13;;;3.22;;
35632;SDS011;21754;48.216;-1.628;2022-08-18T13:19:12;4.70;;;2.67;;
35632;SDS011;21754;48.216;-1.628;2022-08-18T13:21:39;3.55;;;2.55;;
35632;SDS011;21754;48.216;-1.628;2022-08-18T13:24:06;8.73;;;2.47;;
35632;SDS011;21754;48.216;-1.628;2022-08-18T13:26:33;9.32;;;3.45;;
35632;SDS011;21754;48.216;-1.628;2022-08-18T13:29:00;5.38;;;2.28;;
35632;SDS011;21754;48.216;-1.628;2022-08-18T13:31:27;3.70;;;2.78;;
35632;SDS011;21754;48.216;-1.628;2022-08-18T13:33:53;2.90;;;2.40;;
35632;SDS011;21754;48.216;-1.628;2022-08-18T13:36:22;3.30;;;2.58;;
35632;SDS011;21754;48.216;-1.628;2022-08-18T13:38:50;4.05;;;2.47;;
35632;SDS011;21754;48.216;-1.628;2022-08-18T13:41:18;2.78;;;2.58;;
35632;SDS011;21754;48.216;-1.628;2022-08-18T13:43:44;5.18;;;2.22;;
35632;SDS011;21754;48.216;-1.628;2022-08-18T13:46:11;3.55;;;2.38;;
35632;SDS011;21754;48.216;-1.628;2022-08-18T13:48:42;3.67;;;2.55;;
35632;SDS011;21754;48.216;-1.628;2022-08-18T13:51:10;5.63;;;2.78;;
35632;SDS011;21754;48.216;-1.628;2022-08-18T13:53:43;4.95;;;2.63;;
35632;SDS011;21754;48.216;-1.628;2022-08-18T13:56:09;5.22;;;3.38;;
35632;SDS011;21754;48.216;-1.628;2022-08-18T13:58:35;2.10;;;1.85;;
35632;SDS011;21754;48.216;-1.628;2022-08-18T14:01:01;2.75;;;2.55;;
35632;SDS011;21754;48.216;-1.628;2022-08-18T14:03:29;4.75;;;2.00;;
35632;SDS011;21754;48.216;-1.628;2022-08-18T14:05:56;3.13;;;2.05;;
35632;SDS011;21754;48.216;-1.628;2022-08-18T14:08:24;2.85;;;2.58;;
35632;SDS011;21754;48.216;-1.628;2022-08-18T14:10:52;6.15;;;2.28;;
35632;SDS011;21754;48.216;-1.628;2022-08-18T14:13:20;5.55;;;3.03;;
35632;SDS011;21754;48.216;-1.628;2022-08-18T14:15:46;4.25;;;2.28;;
35632;SDS011;21754;48.216;-1.628;2022-08-18T14:18:12;4.03;;;2.42;;
35632;SDS011;21754;48.216;-1.628;2022-08-18T14:20:38;3.42;;;3.10;;
35632;SDS011;21754;48.216;-1.628;2022-08-18T14:23:22;5.25;;;2.33;;
35632;SDS011;21754;48.216;-1.628;2022-08-18T14:26:07;4.60;;;2.65;;
35632;SDS011;21754;48.216;-1.628;2022-08-18T14:28:52;3.15;;;2.58;;
35632;SDS011;21754;48.216;-1.628;2022-08-18T14:31:17;10.75;;;3.50;;
35632;SDS011;21754;48.216;-1.628;2022-08-18T14:33:44;5.68;;;2.05;;
35632;SDS011;21754;48.216;-1.628;2022-08-18T14:36:10;9.30;;;2.03;;
35632;SDS011;21754;48.216;-1.628;2022-08-18T14:38:36;5.55;;;2.60;;
35632;SDS011;21754;48.216;-1.628;2022-08-18T14:41:03;2.53;;;2.30;;
35632;SDS011;21754;48.216;-1.628;2022-08-18T14:43:31;14.13;;;3.00;;
35632;SDS011;21754;48.216;-1.628;2022-08-18T14:45:58;6.88;;;3.67;;
35632;SDS011;21754;48.216;-1.628;2022-08-18T14:48:23;6.15;;;2.30;;
35632;SDS011;21754;48.216;-1.628;2022-08-18T14:50:51;2.40;;;2.20;;
35632;SDS011;21754;48.216;-1.628;2022-08-18T14:53:20;4.72;;;2.80;;
35632;SDS011;21754;48.216;-1.628;2022-08-18T14:55:48;9.00;;;2.50;;
35632;SDS011;21754;48.216;-1.628;2022-08-18T14:58:20;2.75;;;2.25;;
35632;SDS011;21754;48.216;-1.628;2022-08-18T15:00:52;2.92;;;2.72;;
35632;SDS011;21754;48.216;-1.628;2022-08-18T15:03:23;12.00;;;3.20;;
35632;SDS011;21754;48.216;-1.628;2022-08-18T15:05:50;2.70;;;2.50;;
35632;SDS011;21754;48.216;-1.628;2022-08-18T15:08:16;2.78;;;2.58;;
35632;SDS011;21754;48.216;-1.628;2022-08-18T15:10:43;4.30;;;2.58;;
35632;SDS011;21754;48.216;-1.628;2022-08-18T15:13:09;4.38;;;3.83;;
35632;SDS011;21754;48.216;-1.628;2022-08-18T15:15:36;4.07;;;2.83;;
35632;SDS011;21754;48.216;-1.628;2022-08-18T15:18:01;5.47;;;3.05;;
35632;SDS011;21754;48.216;-1.628;2022-08-18T15:20:28;9.63;;;2.42;;
35632;SDS011;21754;48.216;-1.628;2022-08-18T15:22:55;3.67;;;2.90;;
35632;SDS011;21754;48.216;-1.628;2022-08-18T15:25:43;5.93;;;3.65;;
35632;SDS011;21754;48.216;-1.628;2022-08-18T15:28:11;4.32;;;3.13;;
35632;SDS011;21754;48.216;-1.628;2022-08-18T15:30:48;2.88;;;2.53;;
35632;SDS011;21754;48.216;-1.628;2022-08-18T15:33:15;5.78;;;2.33;;
35632;SDS011;21754;48.216;-1.628;2022-08-18T15:35:42;7.60;;;3.28;;
35632;SDS011;21754;48.216;-1.628;2022-08-18T15:38:08;6.90;;;3.33;;
35632;SDS011;21754;48.216;-1.628;2022-08-18T15:40:37;3.85;;;2.80;;
35632;SDS011;21754;48.216;-1.628;2022-08-18T15:43:10;3.25;;;2.78;;
35632;SDS011;21754;48.216;-1.628;2022-08-18T15:45:37;4.90;;;3.35;;
35632;SDS011;21754;48.216;-1.628;2022-08-18T15:48:05;7.05;;;3.05;;
35632;SDS011;21754;48.216;-1.628;2022-08-18T15:50:31;3.63;;;3.33;;
35632;SDS011;21754;48.216;-1.628;2022-08-18T15:52:58;4.32;;;2.63;;
35632;SDS011;21754;48.216;-1.628;2022-08-18T15:55:28;3.80;;;3.38;;
35632;SDS011;21754;48.216;-1.628;2022-08-18T15:57:56;5.93;;;3.47;;
35632;SDS011;21754;48.216;-1.628;2022-08-18T16:00:22;3.58;;;3.25;;
35632;SDS011;21754;48.216;-1.628;2022-08-18T16:05:17;8.30;;;4.28;;
35632;SDS011;21754;48.216;-1.628;2022-08-18T16:07:48;7.35;;;3.28;;
35632;SDS011;21754;48.216;-1.628;2022-08-18T16:10:14;3.45;;;2.92;;
35632;SDS011;21754;48.216;-1.628;2022-08-18T16:15:07;6.80;;;4.30;;
35632;SDS011;21754;48.216;-1.628;2022-08-18T16:17:33;8.60;;;3.83;;
35632;SDS011;21754;48.216;-1.628;2022-08-18T16:19:58;8.23;;;3.72;;
35632;SDS011;21754;48.216;-1.628;2022-08-18T16:22:25;3.10;;;2.67;;
35632;SDS011;21754;48.216;-1.628;2022-08-18T16:24:51;3.73;;;2.53;;
35632;SDS011;21754;48.216;-1.628;2022-08-18T16:27:17;3.20;;;2.90;;
35632;SDS011;21754;48.216;-1.628;2022-08-18T16:29:43;12.45;;;4.15;;
35632;SDS011;21754;48.216;-1.628;2022-08-18T16:32:09;6.00;;;2.92;;
35632;SDS011;21754;48.216;-1.628;2022-08-18T16:34:35;7.10;;;3.75;;
35632;SDS011;21754;48.216;-1.628;2022-08-18T16:37:02;5.50;;;3.25;;
35632;SDS011;21754;48.216;-1.628;2022-08-18T16:39:28;5.18;;;2.47;;
35632;SDS011;21754;48.216;-1.628;2022-08-18T16:41:57;4.03;;;2.67;;
35632;SDS011;21754;48.216;-1.628;2022-08-18T16:44:23;3.42;;;2.42;;
35632;SDS011;21754;48.216;-1.628;2022-08-18T16:46:48;8.45;;;2.70;;
35632;SDS011;21754;48.216;-1.628;2022-08-18T16:49:15;4.38;;;2.67;;
35632;SDS011;21754;48.216;-1.628;2022-08-18T16:51:41;7.68;;;2.53;;
35632;SDS011;21754;48.216;-1.628;2022-08-18T16:54:09;3.25;;;2.92;;
35632;SDS011;21754;48.216;-1.628;2022-08-18T16:56:34;4.72;;;2.70;;
35632;SDS011;21754;48.216;-1.628;2022-08-18T16:59:01;8.05;;;2.15;;
35632;SDS011;21754;48.216;-1.628;2022-08-18T17:01:45;14.30;;;2.03;;
35632;SDS011;21754;48.216;-1.628;2022-08-18T17:04:31;2.15;;;1.95;;
35632;SDS011;21754;48.216;-1.628;2022-08-18T17:06:58;4.43;;;2.60;;
35632;SDS011;21754;48.216;-1.628;2022-08-18T17:09:25;2.20;;;1.98;;
35632;SDS011;21754;48.216;-1.628;2022-08-18T17:11:51;4.95;;;3.08;;
35632;SDS011;21754;48.216;-1.628;2022-08-18T17:14:19;4.50;;;3.17;;
35632;SDS011;21754;48.216;-1.628;2022-08-18T17:16:47;3.53;;;2.20;;
35632;SDS011;21754;48.216;-1.628;2022-08-18T17:19:15;3.42;;;1.75;;
35632;SDS011;21754;48.216;-1.628;2022-08-18T17:21:41;4.45;;;1.90;;
35632;SDS011;21754;48.216;-1.628;2022-08-18T17:24:07;4.72;;;2.13;;
35632;SDS011;21754;48.216;-1.628;2022-08-18T17:26:56;9.20;;;2.28;;
35632;SDS011;21754;48.216;-1.628;2022-08-18T17:29:34;2.22;;;2.10;;
35632;SDS011;21754;48.216;-1.628;2022-08-18T17:32:07;4.75;;;1.75;;
35632;SDS011;21754;48.216;-1.628;2022-08-18T17:34:40;2.40;;;2.20;;
35632;SDS011;21754;48.216;-1.628;2022-08-18T17:37:11;5.80;;;1.52;;
35632;SDS011;21754;48.216;-1.628;2022-08-18T17:39:43;3.70;;;1.77;;
35632;SDS011;21754;48.216;-1.628;2022-08-18T17:42:17;3.40;;;1.90;;
35632;SDS011;21754;48.216;-1.628;2022-08-18T17:44:57;5.85;;;1.92;;
35632;SDS011;21754;48.216;-1.628;2022-08-18T17:47:34;6.10;;;1.90;;
35632;SDS011;21754;48.216;-1.628;2022-08-18T17:50:32;2.88;;;1.75;;
35632;SDS011;21754;48.216;-1.628;2022-08-18T17:53:21;3.58;;;2.65;;
35632;SDS011;21754;48.216;-1.628;2022-08-18T17:55:54;3.05;;;2.15;;
35632;SDS011;21754;48.216;-1.628;2022-08-18T18:01:21;4.30;;;2.05;;
35632;SDS011;21754;48.216;-1.628;2022-08-18T18:03:49;5.18;;;1.77;;
35632;SDS011;21754;48.216;-1.628;2022-08-18T18:09:04;6.10;;;2.97;;
35632;SDS011;21754;48.216;-1.628;2022-08-18T18:11:36;5.15;;;2.40;;
35632;SDS011;21754;48.216;-1.628;2022-08-18T18:19:32;2.92;;;1.60;;
35632;SDS011;21754;48.216;-1.628;2022-08-18T18:22:31;4.95;;;3.00;;
35632;SDS011;21754;48.216;-1.628;2022-08-18T18:24:56;3.75;;;2.55;;
35632;SDS011;21754;48.216;-1.628;2022-08-18T18:32:30;2.20;;;2.10;;
35632;SDS011;21754;48.216;-1.628;2022-08-18T18:37:43;4.88;;;2.20;;
35632;SDS011;21754;48.216;-1.628;2022-08-18T18:40:17;6.28;;;2.30;;
35632;SDS011;21754;48.216;-1.628;2022-08-18T18:42:54;3.47;;;2.85;;
35632;SDS011;21754;48.216;-1.628;2022-08-18T18:45:26;5.80;;;2.72;;
35632;SDS011;21754;48.216;-1.628;2022-08-18T18:48:03;5.47;;;2.83;;
35632;SDS011;21754;48.216;-1.628;2022-08-18T18:50:45;3.70;;;2.33;;
35632;SDS011;21754;48.216;-1.628;2022-08-18T18:56:16;3.90;;;2.40;;
35632;SDS011;21754;48.216;-1.628;2022-08-18T18:59:05;4.25;;;2.25;;
35632;SDS011;21754;48.216;-1.628;2022-08-18T19:07:53;3.22;;;2.38;;
35632;SDS011;21754;48.216;-1.628;2022-08-18T19:10:38;4.75;;;2.45;;
35632;SDS011;21754;48.216;-1.628;2022-08-18T19:13:14;5.60;;;2.47;;
35632;SDS011;21754;48.216;-1.628;2022-08-18T19:15:42;4.57;;;3.53;;
35632;SDS011;21754;48.216;-1.628;2022-08-18T19:18:30;5.95;;;2.40;;
35632;SDS011;21754;48.216;-1.628;2022-08-18T19:21:01;9.43;;;2.20;;
35632;SDS011;21754;48.216;-1.628;2022-08-18T19:23:41;7.53;;;2.65;;
35632;SDS011;21754;48.216;-1.628;2022-08-18T19:26:10;6.93;;;2.60;;
35632;SDS011;21754;48.216;-1.628;2022-08-18T19:28:45;3.75;;;3.40;;
35632;SDS011;21754;48.216;-1.628;2022-08-18T19:31:25;3.00;;;2.80;;
35632;SDS011;21754;48.216;-1.628;2022-08-18T19:33:58;4.93;;;2.92;;
35632;SDS011;21754;48.216;-1.628;2022-08-18T19:39:01;13.02;;;3.78;;
35632;SDS011;21754;48.216;-1.628;2022-08-18T19:46:37;4.80;;;2.55;;
35632;SDS011;21754;48.216;-1.628;2022-08-18T19:58:04;4.25;;;2.40;;
35632;SDS011;21754;48.216;-1.628;2022-08-18T20:00:56;6.82;;;2.15;;
35632;SDS011;21754;48.216;-1.628;2022-08-18T20:14:35;4.78;;;2.88;;
35632;SDS011;21754;48.216;-1.628;2022-08-18T20:17:09;4.28;;;3.20;;
35632;SDS011;21754;48.216;-1.628;2022-08-18T20:25:29;3.20;;;2.90;;
35632;SDS011;21754;48.216;-1.628;2022-08-18T20:30:27;5.53;;;2.75;;
35632;SDS011;21754;48.216;-1.628;2022-08-18T20:35:31;7.07;;;2.58;;
35632;SDS011;21754;48.216;-1.628;2022-08-18T20:38:17;5.35;;;3.00;;
35632;SDS011;21754;48.216;-1.628;2022-08-18T20:40:45;4.88;;;2.85;;
35632;SDS011;21754;48.216;-1.628;2022-08-18T20:43:31;9.52;;;3.35;;
35632;SDS011;21754;48.216;-1.628;2022-08-18T20:48:36;6.05;;;3.05;;
35632;SDS011;21754;48.216;-1.628;2022-08-18T20:51:10;6.50;;;3.00;;
35632;SDS011;21754;48.216;-1.628;2022-08-18T20:56:36;4.88;;;3.08;;
35632;SDS011;21754;48.216;-1.628;2022-08-18T20:59:27;3.72;;;2.88;;
35632;SDS011;21754;48.216;-1.628;2022-08-18T21:01:57;5.18;;;2.35;;
35632;SDS011;21754;48.216;-1.628;2022-08-18T21:04:32;5.55;;;3.38;;
35632;SDS011;21754;48.216;-1.628;2022-08-18T21:07:14;3.15;;;2.95;;
35632;SDS011;21754;48.216;-1.628;2022-08-18T21:09:52;5.40;;;2.85;;
35632;SDS011;21754;48.216;-1.628;2022-08-18T21:12:25;10.77;;;2.88;;
35632;SDS011;21754;48.216;-1.628;2022-08-18T21:14:54;15.30;;;3.00;;
35632;SDS011;21754;48.216;-1.628;2022-08-18T21:19:56;7.88;;;3.22;;
35632;SDS011;21754;48.216;-1.628;2022-08-18T21:22:23;3.38;;;2.17;;
35632;SDS011;21754;48.216;-1.628;2022-08-18T21:24:49;2.92;;;2.58;;
35632;SDS011;21754;48.216;-1.628;2022-08-18T21:27:33;10.30;;;3.63;;
35632;SDS011;21754;48.216;-1.628;2022-08-18T21:30:13;6.00;;;3.05;;
35632;SDS011;21754;48.216;-1.628;2022-08-18T21:32:39;5.95;;;2.58;;
35632;SDS011;21754;48.216;-1.628;2022-08-18T21:35:21;9.18;;;3.90;;
35632;SDS011;21754;48.216;-1.628;2022-08-18T21:38:03;7.72;;;2.38;;
35632;SDS011;21754;48.216;-1.628;2022-08-18T21:43:00;4.15;;;2.78;;
35632;SDS011;21754;48.216;-1.628;2022-08-18T21:45:26;14.07;;;3.53;;
35632;SDS011;21754;48.216;-1.628;2022-08-18T21:47:54;6.97;;;3.08;;
35632;SDS011;21754;48.216;-1.628;2022-08-18T21:50:26;4.30;;;3.53;;
35632;SDS011;21754;48.216;-1.628;2022-08-18T21:52:58;6.38;;;2.72;;
35632;SDS011;21754;48.216;-1.628;2022-08-18T21:55:46;5.43;;;2.35;;
35632;SDS011;21754;48.216;-1.628;2022-08-18T21:58:29;3.97;;;2.72;;
35632;SDS011;21754;48.216;-1.628;2022-08-18T22:03:56;6.82;;;2.83;;
35632;SDS011;21754;48.216;-1.628;2022-08-18T22:08:59;4.70;;;2.78;;
35632;SDS011;21754;48.216;-1.628;2022-08-18T22:11:48;5.00;;;2.53;;
35632;SDS011;21754;48.216;-1.628;2022-08-18T22:14:52;6.07;;;3.53;;
35632;SDS011;21754;48.216;-1.628;2022-08-18T22:23:43;5.78;;;2.67;;
35632;SDS011;21754;48.216;-1.628;2022-08-18T22:31:47;6.22;;;2.70;;
35632;SDS011;21754;48.216;-1.628;2022-08-18T22:34:18;13.68;;;3.65;;
35632;SDS011;21754;48.216;-1.628;2022-08-18T22:36:48;7.10;;;3.03;;
35632;SDS011;21754;48.216;-1.628;2022-08-18T22:39:22;6.10;;;2.65;;
35632;SDS011;21754;48.216;-1.628;2022-08-18T22:41:51;5.10;;;2.95;;
35632;SDS011;21754;48.216;-1.628;2022-08-18T22:44:17;7.70;;;3.30;;
35632;SDS011;21754;48.216;-1.628;2022-08-18T22:46:43;3.15;;;2.95;;
35632;SDS011;21754;48.216;-1.628;2022-08-18T22:49:09;9.52;;;3.15;;
35632;SDS011;21754;48.216;-1.628;2022-08-18T22:51:34;2.85;;;2.58;;
35632;SDS011;21754;48.216;-1.628;2022-08-18T22:54:01;4.22;;;3.83;;
35632;SDS011;21754;48.216;-1.628;2022-08-18T22:56:33;8.00;;;3.20;;
35632;SDS011;21754;48.216;-1.628;2022-08-18T22:59:00;3.50;;;3.08;;
35632;SDS011;21754;48.216;-1.628;2022-08-18T23:01:27;5.15;;;3.50;;
35632;SDS011;21754;48.216;-1.628;2022-08-18T23:03:54;5.65;;;3.78;;
35632;SDS011;21754;48.216;-1.628;2022-08-18T23:06:19;3.58;;;3.00;;
35632;SDS011;21754;48.216;-1.628;2022-08-18T23:08:45;4.88;;;3.03;;
35632;SDS011;21754;48.216;-1.628;2022-08-18T23:11:11;9.38;;;3.53;;
35632;SDS011;21754;48.216;-1.628;2022-08-18T23:13:36;7.10;;;3.20;;
35632;SDS011;21754;48.216;-1.628;2022-08-18T23:16:04;7.40;;;5.07;;
35632;SDS011;21754;48.216;-1.628;2022-08-18T23:18:31;5.63;;;4.00;;
35632;SDS011;21754;48.216;-1.628;2022-08-18T23:20:57;3.97;;;3.35;;
35632;SDS011;21754;48.216;-1.628;2022-08-18T23:23:23;9.77;;;3.92;;
35632;SDS011;21754;48.216;-1.628;2022-08-18T23:25:50;6.05;;;3.47;;
35632;SDS011;21754;48.216;-1.628;2022-08-18T23:28:17;5.63;;;4.45;;
35632;SDS011;21754;48.216;-1.628;2022-08-18T23:30:44;7.07;;;3.33;;
35632;SDS011;21754;48.216;-1.628;2022-08-18T23:33:14;3.72;;;3.22;;
35632;SDS011;21754;48.216;-1.628;2022-08-18T23:35:41;8.63;;;5.88;;
35632;SDS011;21754;48.216;-1.628;2022-08-18T23:38:07;7.57;;;3.50;;
35632;SDS011;21754;48.216;-1.628;2022-08-18T23:40:34;2.78;;;2.58;;
35632;SDS011;21754;48.216;-1.628;2022-08-18T23:43:00;4.18;;;2.72;;
35632;SDS011;21754;48.216;-1.628;2022-08-18T23:45:26;3.13;;;2.75;;
35632;SDS011;21754;48.216;-1.628;2022-08-18T23:47:53;4.43;;;2.40;;
35632;SDS011;21754;48.216;-1.628;2022-08-18T23:50:19;4.20;;;2.78;;
35632;SDS011;21754;48.216;-1.628;2022-08-18T23:52:46;4.57;;;3.40;;
35632;SDS011;21754;48.216;-1.628;2022-08-18T23:55:18;3.60;;;2.35;;
35632;SDS011;21754;48.216;-1.628;2022-08-18T23:57:44;5.22;;;2.30;;
